sensor_id;sensor_type;location;lat;lon;timestamp;P1;durP1;ratioP1;P2;durP2;ratioP2
21010;SDS011;10663;42.714;23.274;2023-06-19T00:01:16;6.20;;;5.55;;
21010;SDS011;10663;42.714;23.274;2023-06-19T00:02:47;5.97;;;5.38;;
21010;SDS011;10663;42.714;23.274;2023-06-19T00:04:18;5.95;;;5.30;;
21010;SDS011;10663;42.714;23.274;2023-06-19T00:05:49;5.82;;;5.20;;
21010;SDS011;10663;42.714;23.274;2023-06-19T00:07:20;5.83;;;5.13;;
21010;SDS011;10663;42.714;23.274;2023-06-19T00:08:52;6.43;;;5.20;;
21010;SDS011;10663;42.714;23.274;2023-06-19T00:10:23;7.78;;;5.63;;
21010;SDS011;10663;42.714;23.274;2023-06-19T00:11:54;7.32;;;5.38;;
21010;SDS011;10663;42.714;23.274;2023-06-19T00:13:25;6.03;;;5.43;;
21010;SDS011;10663;42.714;23.274;2023-06-19T00:14:55;5.93;;;5.25;;
21010;SDS011;10663;42.714;23.274;2023-06-19T00:16:26;5.20;;;4.70;;
21010;SDS011;10663;42.714;23.274;2023-06-19T00:17:59;6.75;;;5.25;;
21010;SDS011;10663;42.714;23.274;2023-06-19T00:19:30;5.60;;;5.00;;
21010;SDS011;10663;42.714;23.274;2023-06-19T00:21:06;5.90;;;5.40;;
21010;SDS011;10663;42.714;23.274;2023-06-19T00:22:38;6.60;;;5.35;;
21010;SDS011;10663;42.714;23.274;2023-06-19T00:24:09;7.22;;;5.30;;
21010;SDS011;10663;42.714;23.274;2023-06-19T00:25:41;6.60;;;5.30;;
21010;SDS011;10663;42.714;23.274;2023-06-19T00:27:13;6.00;;;4.97;;
21010;SDS011;10663;42.714;23.274;2023-06-19T00:28:44;5.32;;;4.82;;
21010;SDS011;10663;42.714;23.274;2023-06-19T00:30:18;7.50;;;5.40;;
21010;SDS011;10663;42.714;23.274;2023-06-19T00:31:49;5.90;;;4.93;;
21010;SDS011;10663;42.714;23.274;2023-06-19T00:33:20;6.60;;;5.13;;
21010;SDS011;10663;42.714;23.274;2023-06-19T00:34:51;5.80;;;5.15;;
21010;SDS011;10663;42.714;23.274;2023-06-19T00:36:21;6.00;;;4.95;;
21010;SDS011;10663;42.714;23.274;2023-06-19T00:37:56;5.45;;;4.95;;
21010;SDS011;10663;42.714;23.274;2023-06-19T00:39:31;6.22;;;5.25;;
21010;SDS011;10663;42.714;23.274;2023-06-19T00:41:02;6.78;;;5.00;;
21010;SDS011;10663;42.714;23.274;2023-06-19T00:42:33;8.18;;;5.45;;
21010;SDS011;10663;42.714;23.274;2023-06-19T00:44:04;6.63;;;5.32;;
21010;SDS011;10663;42.714;23.274;2023-06-19T00:45:35;7.72;;;5.70;;
21010;SDS011;10663;42.714;23.274;2023-06-19T00:47:07;5.90;;;5.28;;
21010;SDS011;10663;42.714;23.274;2023-06-19T00:48:38;6.13;;;5.43;;
21010;SDS011;10663;42.714;23.274;2023-06-19T00:50:09;7.55;;;5.90;;
21010;SDS011;10663;42.714;23.274;2023-06-19T00:51:40;6.28;;;5.32;;
21010;SDS011;10663;42.714;23.274;2023-06-19T00:53:12;6.60;;;5.90;;
21010;SDS011;10663;42.714;23.274;2023-06-19T00:54:44;8.40;;;6.20;;
21010;SDS011;10663;42.714;23.274;2023-06-19T00:56:15;8.15;;;6.05;;
21010;SDS011;10663;42.714;23.274;2023-06-19T00:57:49;7.40;;;5.95;;
21010;SDS011;10663;42.714;23.274;2023-06-19T00:59:22;7.05;;;5.78;;
21010;SDS011;10663;42.714;23.274;2023-06-19T01:00:52;7.40;;;6.00;;
21010;SDS011;10663;42.714;23.274;2023-06-19T01:02:24;8.90;;;5.93;;
21010;SDS011;10663;42.714;23.274;2023-06-19T01:03:55;7.07;;;5.53;;
21010;SDS011;10663;42.714;23.274;2023-06-19T01:05:26;6.33;;;5.33;;
21010;SDS011;10663;42.714;23.274;2023-06-19T01:06:59;6.00;;;5.40;;
21010;SDS011;10663;42.714;23.274;2023-06-19T01:08:44;7.25;;;5.43;;
21010;SDS011;10663;42.714;23.274;2023-06-19T01:10:31;6.78;;;5.63;;
21010;SDS011;10663;42.714;23.274;2023-06-19T01:12:16;6.13;;;5.47;;
21010;SDS011;10663;42.714;23.274;2023-06-19T01:13:53;7.00;;;5.70;;
21010;SDS011;10663;42.714;23.274;2023-06-19T01:15:28;5.60;;;5.07;;
21010;SDS011;10663;42.714;23.274;2023-06-19T01:16:59;5.88;;;5.28;;
21010;SDS011;10663;42.714;23.274;2023-06-19T01:18:31;7.00;;;5.60;;
21010;SDS011;10663;42.714;23.274;2023-06-19T01:20:03;8.48;;;5.90;;
21010;SDS011;10663;42.714;23.274;2023-06-19T01:21:42;5.68;;;5.18;;
21010;SDS011;10663;42.714;23.274;2023-06-19T01:23:13;6.60;;;5.90;;
21010;SDS011;10663;42.714;23.274;2023-06-19T01:24:44;6.40;;;5.47;;
21010;SDS011;10663;42.714;23.274;2023-06-19T01:26:16;7.22;;;5.53;;
21010;SDS011;10663;42.714;23.274;2023-06-19T01:27:47;6.50;;;5.47;;
21010;SDS011;10663;42.714;23.274;2023-06-19T01:29:18;5.80;;;5.25;;
21010;SDS011;10663;42.714;23.274;2023-06-19T01:30:49;5.65;;;5.15;;
21010;SDS011;10663;42.714;23.274;2023-06-19T01:33:05;6.85;;;5.50;;
21010;SDS011;10663;42.714;23.274;2023-06-19T01:34:25;6.13;;;5.20;;
21010;SDS011;10663;42.714;23.274;2023-06-19T01:35:58;6.43;;;5.47;;
21010;SDS011;10663;42.714;23.274;2023-06-19T01:37:30;6.13;;;5.32;;
21010;SDS011;10663;42.714;23.274;2023-06-19T01:39:03;6.13;;;5.30;;
21010;SDS011;10663;42.714;23.274;2023-06-19T01:40:35;5.68;;;5.15;;
21010;SDS011;10663;42.714;23.274;2023-06-19T01:42:08;6.13;;;5.53;;
21010;SDS011;10663;42.714;23.274;2023-06-19T01:43:41;6.13;;;5.63;;
21010;SDS011;10663;42.714;23.274;2023-06-19T01:45:13;5.95;;;5.15;;
21010;SDS011;10663;42.714;23.274;2023-06-19T01:46:50;6.50;;;5.60;;
21010;SDS011;10663;42.714;23.274;2023-06-19T01:48:21;6.22;;;5.63;;
21010;SDS011;10663;42.714;23.274;2023-06-19T01:49:52;6.93;;;5.53;;
21010;SDS011;10663;42.714;23.274;2023-06-19T01:51:23;6.30;;;5.13;;
21010;SDS011;10663;42.714;23.274;2023-06-19T01:52:54;6.55;;;5.80;;
21010;SDS011;10663;42.714;23.274;2023-06-19T01:54:25;5.90;;;5.05;;
21010;SDS011;10663;42.714;23.274;2023-06-19T01:55:55;6.20;;;5.60;;
21010;SDS011;10663;42.714;23.274;2023-06-19T01:57:26;6.35;;;5.72;;
21010;SDS011;10663;42.714;23.274;2023-06-19T01:58:57;6.63;;;5.60;;
21010;SDS011;10663;42.714;23.274;2023-06-19T02:00:29;6.72;;;5.70;;
21010;SDS011;10663;42.714;23.274;2023-06-19T02:02:02;6.28;;;5.68;;
21010;SDS011;10663;42.714;23.274;2023-06-19T02:03:34;9.02;;;5.53;;
21010;SDS011;10663;42.714;23.274;2023-06-19T02:05:05;6.75;;;6.05;;
21010;SDS011;10663;42.714;23.274;2023-06-19T02:06:36;8.13;;;5.50;;
21010;SDS011;10663;42.714;23.274;2023-06-19T02:08:07;6.63;;;5.90;;
21010;SDS011;10663;42.714;23.274;2023-06-19T02:09:40;6.50;;;5.60;;
21010;SDS011;10663;42.714;23.274;2023-06-19T02:11:11;6.93;;;6.22;;
21010;SDS011;10663;42.714;23.274;2023-06-19T02:12:44;6.40;;;5.70;;
21010;SDS011;10663;42.714;23.274;2023-06-19T02:14:15;6.55;;;5.95;;
21010;SDS011;10663;42.714;23.274;2023-06-19T02:15:46;6.97;;;6.03;;
21010;SDS011;10663;42.714;23.274;2023-06-19T02:17:17;7.32;;;6.18;;
21010;SDS011;10663;42.714;23.274;2023-06-19T02:18:48;7.43;;;6.15;;
21010;SDS011;10663;42.714;23.274;2023-06-19T02:20:19;8.60;;;6.30;;
21010;SDS011;10663;42.714;23.274;2023-06-19T02:21:50;9.13;;;6.88;;
21010;SDS011;10663;42.714;23.274;2023-06-19T02:23:21;8.88;;;7.22;;
21010;SDS011;10663;42.714;23.274;2023-06-19T02:24:53;9.65;;;8.43;;
21010;SDS011;10663;42.714;23.274;2023-06-19T02:26:23;11.88;;;9.05;;
21010;SDS011;10663;42.714;23.274;2023-06-19T02:27:57;11.68;;;10.45;;
21010;SDS011;10663;42.714;23.274;2023-06-19T02:29:29;13.07;;;11.60;;
21010;SDS011;10663;42.714;23.274;2023-06-19T02:31:00;14.50;;;13.00;;
21010;SDS011;10663;42.714;23.274;2023-06-19T02:32:31;14.40;;;12.90;;
21010;SDS011;10663;42.714;23.274;2023-06-19T02:34:02;12.65;;;9.18;;
21010;SDS011;10663;42.714;23.274;2023-06-19T02:35:33;9.20;;;8.23;;
21010;SDS011;10663;42.714;23.274;2023-06-19T02:37:03;10.18;;;7.55;;
21010;SDS011;10663;42.714;23.274;2023-06-19T02:38:34;9.10;;;7.68;;
21010;SDS011;10663;42.714;23.274;2023-06-19T02:40:06;8.20;;;6.67;;
21010;SDS011;10663;42.714;23.274;2023-06-19T02:41:39;7.10;;;6.40;;
21010;SDS011;10663;42.714;23.274;2023-06-19T02:43:10;8.63;;;6.30;;
21010;SDS011;10663;42.714;23.274;2023-06-19T02:44:40;7.63;;;5.80;;
21010;SDS011;10663;42.714;23.274;2023-06-19T02:46:13;7.07;;;6.07;;
21010;SDS011;10663;42.714;23.274;2023-06-19T02:47:45;7.65;;;6.45;;
21010;SDS011;10663;42.714;23.274;2023-06-19T02:49:16;7.33;;;6.17;;
21010;SDS011;10663;42.714;23.274;2023-06-19T02:50:47;7.37;;;6.30;;
21010;SDS011;10663;42.714;23.274;2023-06-19T02:52:17;8.52;;;6.35;;
21010;SDS011;10663;42.714;23.274;2023-06-19T02:53:48;7.07;;;6.13;;
21010;SDS011;10663;42.714;23.274;2023-06-19T02:55:19;6.82;;;5.93;;
21010;SDS011;10663;42.714;23.274;2023-06-19T02:56:50;8.73;;;6.40;;
21010;SDS011;10663;42.714;23.274;2023-06-19T02:58:21;8.35;;;6.20;;
21010;SDS011;10663;42.714;23.274;2023-06-19T02:59:52;7.10;;;6.37;;
21010;SDS011;10663;42.714;23.274;2023-06-19T03:01:23;7.43;;;6.32;;
21010;SDS011;10663;42.714;23.274;2023-06-19T03:02:54;7.88;;;6.63;;
21010;SDS011;10663;42.714;23.274;2023-06-19T03:04:25;7.28;;;6.57;;
21010;SDS011;10663;42.714;23.274;2023-06-19T03:05:57;8.10;;;5.95;;
21010;SDS011;10663;42.714;23.274;2023-06-19T03:07:31;7.75;;;6.50;;
21010;SDS011;10663;42.714;23.274;2023-06-19T03:09:02;8.25;;;6.40;;
21010;SDS011;10663;42.714;23.274;2023-06-19T03:10:34;7.75;;;6.53;;
21010;SDS011;10663;42.714;23.274;2023-06-19T03:12:06;6.72;;;6.00;;
21010;SDS011;10663;42.714;23.274;2023-06-19T03:13:45;7.60;;;6.10;;
21010;SDS011;10663;42.714;23.274;2023-06-19T03:15:17;8.20;;;6.50;;
21010;SDS011;10663;42.714;23.274;2023-06-19T03:16:52;8.15;;;6.15;;
21010;SDS011;10663;42.714;23.274;2023-06-19T03:18:23;6.60;;;5.90;;
21010;SDS011;10663;42.714;23.274;2023-06-19T03:19:54;6.88;;;6.18;;
21010;SDS011;10663;42.714;23.274;2023-06-19T03:21:26;8.20;;;6.05;;
21010;SDS011;10663;42.714;23.274;2023-06-19T03:22:57;7.03;;;6.32;;
21010;SDS011;10663;42.714;23.274;2023-06-19T03:24:30;7.95;;;6.35;;
21010;SDS011;10663;42.714;23.274;2023-06-19T03:26:15;7.03;;;6.30;;
21010;SDS011;10663;42.714;23.274;2023-06-19T03:27:47;8.60;;;6.95;;
21010;SDS011;10663;42.714;23.274;2023-06-19T03:29:17;8.65;;;6.70;;
21010;SDS011;10663;42.714;23.274;2023-06-19T03:31:00;7.03;;;6.25;;
21010;SDS011;10663;42.714;23.274;2023-06-19T03:32:32;8.40;;;7.07;;
21010;SDS011;10663;42.714;23.274;2023-06-19T03:34:05;8.40;;;6.57;;
21010;SDS011;10663;42.714;23.274;2023-06-19T03:35:39;7.57;;;6.40;;
21010;SDS011;10663;42.714;23.274;2023-06-19T03:37:12;8.52;;;6.45;;
21010;SDS011;10663;42.714;23.274;2023-06-19T03:38:44;8.57;;;6.30;;
21010;SDS011;10663;42.714;23.274;2023-06-19T03:40:17;7.47;;;6.22;;
21010;SDS011;10663;42.714;23.274;2023-06-19T03:41:52;7.00;;;6.25;;
21010;SDS011;10663;42.714;23.274;2023-06-19T03:43:22;8.75;;;6.68;;
21010;SDS011;10663;42.714;23.274;2023-06-19T03:44:54;7.10;;;5.93;;
21010;SDS011;10663;42.714;23.274;2023-06-19T03:46:24;7.93;;;6.53;;
21010;SDS011;10663;42.714;23.274;2023-06-19T03:47:56;7.32;;;6.20;;
21010;SDS011;10663;42.714;23.274;2023-06-19T03:49:26;8.32;;;6.88;;
21010;SDS011;10663;42.714;23.274;2023-06-19T03:50:58;9.45;;;6.25;;
21010;SDS011;10663;42.714;23.274;2023-06-19T03:52:29;7.72;;;5.93;;
21010;SDS011;10663;42.714;23.274;2023-06-19T03:54:00;7.90;;;6.73;;
21010;SDS011;10663;42.714;23.274;2023-06-19T03:55:31;10.00;;;7.30;;
21010;SDS011;10663;42.714;23.274;2023-06-19T03:57:02;8.00;;;6.27;;
21010;SDS011;10663;42.714;23.274;2023-06-19T03:58:33;7.22;;;6.53;;
21010;SDS011;10663;42.714;23.274;2023-06-19T04:00:06;7.97;;;6.20;;
21010;SDS011;10663;42.714;23.274;2023-06-19T04:01:42;6.63;;;6.00;;
21010;SDS011;10663;42.714;23.274;2023-06-19T04:03:14;8.85;;;6.70;;
21010;SDS011;10663;42.714;23.274;2023-06-19T04:04:45;10.55;;;6.68;;
21010;SDS011;10663;42.714;23.274;2023-06-19T04:06:15;7.33;;;6.30;;
21010;SDS011;10663;42.714;23.274;2023-06-19T04:07:47;8.10;;;6.07;;
21010;SDS011;10663;42.714;23.274;2023-06-19T04:09:18;8.75;;;6.03;;
21010;SDS011;10663;42.714;23.274;2023-06-19T04:10:49;10.55;;;6.68;;
21010;SDS011;10663;42.714;23.274;2023-06-19T04:12:20;8.32;;;6.30;;
21010;SDS011;10663;42.714;23.274;2023-06-19T04:13:51;9.50;;;6.50;;
21010;SDS011;10663;42.714;23.274;2023-06-19T04:15:22;8.98;;;6.55;;
21010;SDS011;10663;42.714;23.274;2023-06-19T04:16:53;7.47;;;6.13;;
21010;SDS011;10663;42.714;23.274;2023-06-19T04:18:24;10.15;;;6.60;;
21010;SDS011;10663;42.714;23.274;2023-06-19T04:19:55;11.00;;;6.87;;
21010;SDS011;10663;42.714;23.274;2023-06-19T04:21:26;7.70;;;6.47;;
21010;SDS011;10663;42.714;23.274;2023-06-19T04:22:57;8.40;;;6.40;;
21010;SDS011;10663;42.714;23.274;2023-06-19T04:24:28;9.02;;;6.30;;
21010;SDS011;10663;42.714;23.274;2023-06-19T04:26:00;8.50;;;6.60;;
21010;SDS011;10663;42.714;23.274;2023-06-19T04:27:31;8.50;;;6.18;;
21010;SDS011;10663;42.714;23.274;2023-06-19T04:29:02;7.55;;;5.78;;
21010;SDS011;10663;42.714;23.274;2023-06-19T04:30:33;7.05;;;5.72;;
21010;SDS011;10663;42.714;23.274;2023-06-19T04:32:04;8.77;;;5.78;;
21010;SDS011;10663;42.714;23.274;2023-06-19T04:33:41;7.28;;;6.25;;
21010;SDS011;10663;42.714;23.274;2023-06-19T04:35:12;6.63;;;5.93;;
21010;SDS011;10663;42.714;23.274;2023-06-19T04:36:43;6.70;;;5.80;;
21010;SDS011;10663;42.714;23.274;2023-06-19T04:38:14;8.68;;;5.90;;
21010;SDS011;10663;42.714;23.274;2023-06-19T04:39:46;7.22;;;5.78;;
21010;SDS011;10663;42.714;23.274;2023-06-19T04:41:17;6.57;;;5.20;;
21010;SDS011;10663;42.714;23.274;2023-06-19T04:42:48;5.80;;;4.93;;
21010;SDS011;10663;42.714;23.274;2023-06-19T04:44:18;5.68;;;5.18;;
21010;SDS011;10663;42.714;23.274;2023-06-19T04:45:49;7.50;;;5.20;;
21010;SDS011;10663;42.714;23.274;2023-06-19T04:47:22;5.40;;;4.90;;
21010;SDS011;10663;42.714;23.274;2023-06-19T04:48:53;5.97;;;5.10;;
21010;SDS011;10663;42.714;23.274;2023-06-19T04:50:24;5.60;;;5.03;;
21010;SDS011;10663;42.714;23.274;2023-06-19T04:51:56;6.87;;;5.83;;
21010;SDS011;10663;42.714;23.274;2023-06-19T04:53:28;7.53;;;5.63;;
21010;SDS011;10663;42.714;23.274;2023-06-19T04:54:59;6.05;;;5.15;;
21010;SDS011;10663;42.714;23.274;2023-06-19T04:56:30;6.05;;;5.45;;
21010;SDS011;10663;42.714;23.274;2023-06-19T04:58:01;9.68;;;5.80;;
21010;SDS011;10663;42.714;23.274;2023-06-19T04:59:32;7.07;;;5.43;;
21010;SDS011;10663;42.714;23.274;2023-06-19T05:01:03;6.18;;;5.25;;
21010;SDS011;10663;42.714;23.274;2023-06-19T05:02:34;6.85;;;5.45;;
21010;SDS011;10663;42.714;23.274;2023-06-19T05:04:05;7.03;;;5.93;;
21010;SDS011;10663;42.714;23.274;2023-06-19T05:05:36;6.83;;;5.60;;
21010;SDS011;10663;42.714;23.274;2023-06-19T05:07:07;6.13;;;4.97;;
21010;SDS011;10663;42.714;23.274;2023-06-19T05:08:38;7.38;;;6.00;;
21010;SDS011;10663;42.714;23.274;2023-06-19T05:10:09;6.18;;;5.40;;
21010;SDS011;10663;42.714;23.274;2023-06-19T05:11:40;6.40;;;5.37;;
21010;SDS011;10663;42.714;23.274;2023-06-19T05:13:11;7.50;;;5.70;;
21010;SDS011;10663;42.714;23.274;2023-06-19T05:14:42;6.57;;;5.88;;
21010;SDS011;10663;42.714;23.274;2023-06-19T05:16:13;6.40;;;5.63;;
21010;SDS011;10663;42.714;23.274;2023-06-19T05:17:46;7.15;;;5.70;;
21010;SDS011;10663;42.714;23.274;2023-06-19T05:19:17;6.40;;;5.72;;
21010;SDS011;10663;42.714;23.274;2023-06-19T05:20:48;7.13;;;6.43;;
21010;SDS011;10663;42.714;23.274;2023-06-19T05:22:19;7.80;;;5.65;;
21010;SDS011;10663;42.714;23.274;2023-06-19T05:23:52;7.90;;;5.82;;
21010;SDS011;10663;42.714;23.274;2023-06-19T05:25:23;7.30;;;5.82;;
21010;SDS011;10663;42.714;23.274;2023-06-19T05:26:54;6.95;;;5.82;;
21010;SDS011;10663;42.714;23.274;2023-06-19T05:28:25;6.03;;;5.45;;
21010;SDS011;10663;42.714;23.274;2023-06-19T05:29:55;6.43;;;5.83;;
21010;SDS011;10663;42.714;23.274;2023-06-19T05:31:26;6.20;;;5.50;;
21010;SDS011;10663;42.714;23.274;2023-06-19T05:32:57;6.07;;;5.32;;
21010;SDS011;10663;42.714;23.274;2023-06-19T05:34:28;5.95;;;5.35;;
21010;SDS011;10663;42.714;23.274;2023-06-19T05:35:59;6.53;;;5.50;;
21010;SDS011;10663;42.714;23.274;2023-06-19T05:37:30;6.57;;;5.65;;
21010;SDS011;10663;42.714;23.274;2023-06-19T05:39:01;6.20;;;5.60;;
21010;SDS011;10663;42.714;23.274;2023-06-19T05:40:32;5.55;;;5.03;;
21010;SDS011;10663;42.714;23.274;2023-06-19T05:42:03;6.90;;;5.60;;
21010;SDS011;10663;42.714;23.274;2023-06-19T05:43:34;6.45;;;5.05;;
21010;SDS011;10663;42.714;23.274;2023-06-19T05:45:05;7.60;;;6.03;;
21010;SDS011;10663;42.714;23.274;2023-06-19T05:46:37;7.47;;;6.10;;
21010;SDS011;10663;42.714;23.274;2023-06-19T05:48:07;6.95;;;5.70;;
21010;SDS011;10663;42.714;23.274;2023-06-19T05:49:38;6.97;;;5.45;;
21010;SDS011;10663;42.714;23.274;2023-06-19T05:51:11;8.18;;;5.50;;
21010;SDS011;10663;42.714;23.274;2023-06-19T05:52:42;6.47;;;5.82;;
21010;SDS011;10663;42.714;23.274;2023-06-19T05:54:13;6.82;;;5.47;;
21010;SDS011;10663;42.714;23.274;2023-06-19T05:55:44;6.05;;;5.50;;
21010;SDS011;10663;42.714;23.274;2023-06-19T05:57:15;7.68;;;5.57;;
21010;SDS011;10663;42.714;23.274;2023-06-19T05:58:49;6.55;;;5.50;;
21010;SDS011;10663;42.714;23.274;2023-06-19T06:00:20;6.90;;;5.45;;
21010;SDS011;10663;42.714;23.274;2023-06-19T06:01:51;6.07;;;5.53;;
21010;SDS011;10663;42.714;23.274;2023-06-19T06:03:23;5.97;;;5.22;;
21010;SDS011;10663;42.714;23.274;2023-06-19T06:04:55;6.00;;;5.40;;
21010;SDS011;10663;42.714;23.274;2023-06-19T06:06:26;5.57;;;4.95;;
21010;SDS011;10663;42.714;23.274;2023-06-19T06:07:58;6.82;;;5.00;;
21010;SDS011;10663;42.714;23.274;2023-06-19T06:09:29;7.47;;;5.20;;
21010;SDS011;10663;42.714;23.274;2023-06-19T06:11:01;6.47;;;5.47;;
21010;SDS011;10663;42.714;23.274;2023-06-19T06:12:35;5.78;;;5.18;;
21010;SDS011;10663;42.714;23.274;2023-06-19T06:14:06;5.93;;;4.97;;
21010;SDS011;10663;42.714;23.274;2023-06-19T06:15:37;7.22;;;5.07;;
21010;SDS011;10663;42.714;23.274;2023-06-19T06:17:08;7.00;;;5.63;;
21010;SDS011;10663;42.714;23.274;2023-06-19T06:18:39;6.93;;;5.35;;
21010;SDS011;10663;42.714;23.274;2023-06-19T06:20:10;5.68;;;5.18;;
21010;SDS011;10663;42.714;23.274;2023-06-19T06:21:44;5.80;;;5.20;;
21010;SDS011;10663;42.714;23.274;2023-06-19T06:23:15;6.68;;;5.55;;
21010;SDS011;10663;42.714;23.274;2023-06-19T06:24:46;6.18;;;5.57;;
21010;SDS011;10663;42.714;23.274;2023-06-19T06:26:17;6.97;;;5.18;;
21010;SDS011;10663;42.714;23.274;2023-06-19T06:27:49;6.40;;;5.30;;
21010;SDS011;10663;42.714;23.274;2023-06-19T06:29:20;6.93;;;5.30;;
21010;SDS011;10663;42.714;23.274;2023-06-19T06:30:50;5.93;;;5.40;;
21010;SDS011;10663;42.714;23.274;2023-06-19T06:32:23;5.57;;;5.00;;
21010;SDS011;10663;42.714;23.274;2023-06-19T06:33:53;5.60;;;5.00;;
21010;SDS011;10663;42.714;23.274;2023-06-19T06:35:24;5.53;;;5.03;;
21010;SDS011;10663;42.714;23.274;2023-06-19T06:36:55;5.27;;;4.77;;
21010;SDS011;10663;42.714;23.274;2023-06-19T06:38:26;6.50;;;5.15;;
21010;SDS011;10663;42.714;23.274;2023-06-19T06:39:57;6.32;;;5.65;;
21010;SDS011;10663;42.714;23.274;2023-06-19T06:41:28;5.38;;;4.75;;
21010;SDS011;10663;42.714;23.274;2023-06-19T06:42:58;6.70;;;5.20;;
21010;SDS011;10663;42.714;23.274;2023-06-19T06:44:29;6.05;;;4.70;;
21010;SDS011;10663;42.714;23.274;2023-06-19T06:46:00;6.15;;;5.00;;
21010;SDS011;10663;42.714;23.274;2023-06-19T06:47:31;7.32;;;5.20;;
21010;SDS011;10663;42.714;23.274;2023-06-19T06:49:02;6.68;;;5.03;;
21010;SDS011;10663;42.714;23.274;2023-06-19T06:50:33;7.83;;;5.10;;
21010;SDS011;10663;42.714;23.274;2023-06-19T06:52:04;6.25;;;4.93;;
21010;SDS011;10663;42.714;23.274;2023-06-19T06:53:36;6.13;;;5.00;;
21010;SDS011;10663;42.714;23.274;2023-06-19T06:55:07;6.00;;;5.35;;
21010;SDS011;10663;42.714;23.274;2023-06-19T06:56:38;6.90;;;4.90;;
21010;SDS011;10663;42.714;23.274;2023-06-19T06:58:09;6.28;;;5.20;;
21010;SDS011;10663;42.714;23.274;2023-06-19T06:59:40;6.18;;;5.05;;
21010;SDS011;10663;42.714;23.274;2023-06-19T07:01:11;5.85;;;4.65;;
21010;SDS011;10663;42.714;23.274;2023-06-19T07:02:42;8.43;;;5.10;;
21010;SDS011;10663;42.714;23.274;2023-06-19T07:04:13;5.68;;;4.93;;
21010;SDS011;10663;42.714;23.274;2023-06-19T07:05:44;6.80;;;4.97;;
21010;SDS011;10663;42.714;23.274;2023-06-19T07:07:15;5.95;;;5.05;;
21010;SDS011;10663;42.714;23.274;2023-06-19T07:08:46;5.78;;;4.57;;
21010;SDS011;10663;42.714;23.274;2023-06-19T07:10:18;5.97;;;4.80;;
21010;SDS011;10663;42.714;23.274;2023-06-19T07:11:49;8.85;;;5.10;;
21010;SDS011;10663;42.714;23.274;2023-06-19T07:13:20;5.63;;;5.03;;
21010;SDS011;10663;42.714;23.274;2023-06-19T07:14:53;6.20;;;4.88;;
21010;SDS011;10663;42.714;23.274;2023-06-19T07:16:24;5.70;;;4.82;;
21010;SDS011;10663;42.714;23.274;2023-06-19T07:17:56;7.70;;;4.97;;
21010;SDS011;10663;42.714;23.274;2023-06-19T07:19:26;5.32;;;4.82;;
21010;SDS011;10663;42.714;23.274;2023-06-19T07:20:57;5.63;;;5.13;;
21010;SDS011;10663;42.714;23.274;2023-06-19T07:22:28;5.68;;;5.07;;
21010;SDS011;10663;42.714;23.274;2023-06-19T07:23:59;8.10;;;5.10;;
21010;SDS011;10663;42.714;23.274;2023-06-19T07:25:30;5.70;;;4.90;;
21010;SDS011;10663;42.714;23.274;2023-06-19T07:27:04;5.43;;;4.93;;
21010;SDS011;10663;42.714;23.274;2023-06-19T07:28:35;5.22;;;4.57;;
21010;SDS011;10663;42.714;23.274;2023-06-19T07:30:06;6.25;;;4.97;;
21010;SDS011;10663;42.714;23.274;2023-06-19T07:31:38;5.05;;;4.55;;
21010;SDS011;10663;42.714;23.274;2023-06-19T07:33:09;5.27;;;4.30;;
21010;SDS011;10663;42.714;23.274;2023-06-19T07:34:39;5.57;;;5.05;;
21010;SDS011;10663;42.714;23.274;2023-06-19T07:36:10;5.57;;;4.80;;
21010;SDS011;10663;42.714;23.274;2023-06-19T07:37:44;6.75;;;4.82;;
21010;SDS011;10663;42.714;23.274;2023-06-19T07:39:15;5.15;;;4.50;;
21010;SDS011;10663;42.714;23.274;2023-06-19T07:40:46;6.23;;;5.20;;
21010;SDS011;10663;42.714;23.274;2023-06-19T07:42:18;6.22;;;4.80;;
21010;SDS011;10663;42.714;23.274;2023-06-19T07:43:50;5.60;;;5.00;;
21010;SDS011;10663;42.714;23.274;2023-06-19T07:45:21;4.83;;;4.33;;
21010;SDS011;10663;42.714;23.274;2023-06-19T07:46:53;5.00;;;4.50;;
21010;SDS011;10663;42.714;23.274;2023-06-19T07:48:24;6.63;;;5.05;;
21010;SDS011;10663;42.714;23.274;2023-06-19T07:49:55;6.07;;;5.37;;
21010;SDS011;10663;42.714;23.274;2023-06-19T07:51:26;5.78;;;4.78;;
21010;SDS011;10663;42.714;23.274;2023-06-19T07:52:56;5.25;;;4.70;;
21010;SDS011;10663;42.714;23.274;2023-06-19T07:54:28;8.02;;;4.80;;
21010;SDS011;10663;42.714;23.274;2023-06-19T07:56:01;5.82;;;4.50;;
21010;SDS011;10663;42.714;23.274;2023-06-19T07:57:32;5.10;;;4.63;;
21010;SDS011;10663;42.714;23.274;2023-06-19T07:59:03;5.90;;;4.75;;
21010;SDS011;10663;42.714;23.274;2023-06-19T08:00:34;4.70;;;4.03;;
21010;SDS011;10663;42.714;23.274;2023-06-19T08:02:05;5.68;;;4.50;;
21010;SDS011;10663;42.714;23.274;2023-06-19T08:03:36;5.88;;;4.55;;
21010;SDS011;10663;42.714;23.274;2023-06-19T08:05:08;7.05;;;4.38;;
21010;SDS011;10663;42.714;23.274;2023-06-19T08:06:40;5.18;;;4.65;;
21010;SDS011;10663;42.714;23.274;2023-06-19T08:08:11;5.47;;;4.45;;
21010;SDS011;10663;42.714;23.274;2023-06-19T08:09:42;5.03;;;4.47;;
21010;SDS011;10663;42.714;23.274;2023-06-19T08:11:14;7.50;;;4.75;;
21010;SDS011;10663;42.714;23.274;2023-06-19T08:12:45;4.72;;;4.28;;
21010;SDS011;10663;42.714;23.274;2023-06-19T08:14:19;5.18;;;4.68;;
21010;SDS011;10663;42.714;23.274;2023-06-19T08:15:51;6.45;;;4.93;;
21010;SDS011;10663;42.714;23.274;2023-06-19T08:17:22;5.07;;;4.40;;
21010;SDS011;10663;42.714;23.274;2023-06-19T08:18:53;5.37;;;4.23;;
21010;SDS011;10663;42.714;23.274;2023-06-19T08:20:24;5.35;;;4.38;;
21010;SDS011;10663;42.714;23.274;2023-06-19T08:21:55;5.10;;;4.60;;
21010;SDS011;10663;42.714;23.274;2023-06-19T08:23:26;5.07;;;4.47;;
21010;SDS011;10663;42.714;23.274;2023-06-19T08:24:57;5.28;;;4.32;;
21010;SDS011;10663;42.714;23.274;2023-06-19T08:26:28;4.82;;;4.35;;
21010;SDS011;10663;42.714;23.274;2023-06-19T08:27:59;5.20;;;4.63;;
21010;SDS011;10663;42.714;23.274;2023-06-19T08:29:30;6.70;;;4.70;;
21010;SDS011;10663;42.714;23.274;2023-06-19T08:31:01;5.93;;;4.63;;
21010;SDS011;10663;42.714;23.274;2023-06-19T08:32:33;4.90;;;4.40;;
21010;SDS011;10663;42.714;23.274;2023-06-19T08:34:05;5.45;;;4.50;;
21010;SDS011;10663;42.714;23.274;2023-06-19T08:35:40;5.72;;;4.38;;
21010;SDS011;10663;42.714;23.274;2023-06-19T08:37:11;5.37;;;4.50;;
21010;SDS011;10663;42.714;23.274;2023-06-19T08:38:41;5.32;;;4.50;;
21010;SDS011;10663;42.714;23.274;2023-06-19T08:40:12;4.93;;;4.03;;
21010;SDS011;10663;42.714;23.274;2023-06-19T08:41:43;5.05;;;4.00;;
21010;SDS011;10663;42.714;23.274;2023-06-19T08:43:14;5.50;;;4.80;;
21010;SDS011;10663;42.714;23.274;2023-06-19T08:44:45;8.87;;;6.80;;
21010;SDS011;10663;42.714;23.274;2023-06-19T08:46:17;6.47;;;4.78;;
21010;SDS011;10663;42.714;23.274;2023-06-19T08:47:48;6.25;;;4.80;;
21010;SDS011;10663;42.714;23.274;2023-06-19T08:49:19;5.60;;;4.60;;
21010;SDS011;10663;42.714;23.274;2023-06-19T08:50:50;5.55;;;4.15;;
21010;SDS011;10663;42.714;23.274;2023-06-19T08:52:21;6.70;;;4.30;;
21010;SDS011;10663;42.714;23.274;2023-06-19T08:53:55;4.90;;;4.10;;
21010;SDS011;10663;42.714;23.274;2023-06-19T08:55:27;4.57;;;4.10;;
21010;SDS011;10663;42.714;23.274;2023-06-19T08:57:01;4.80;;;4.30;;
21010;SDS011;10663;42.714;23.274;2023-06-19T08:58:33;4.28;;;3.88;;
21010;SDS011;10663;42.714;23.274;2023-06-19T09:00:04;4.87;;;4.10;;
21010;SDS011;10663;42.714;23.274;2023-06-19T09:01:45;5.47;;;4.22;;
21010;SDS011;10663;42.714;23.274;2023-06-19T09:03:29;5.00;;;4.43;;
21010;SDS011;10663;42.714;23.274;2023-06-19T09:05:08;4.78;;;4.28;;